sensor_id;sensor_type;location;lat;lon;timestamp;pressure;altitude;pressure_sealevel;temperature;humidity
47082;BME280;33066;49.296;14.470;2024-03-08T00:00:34;97226.52;;;10.89;31.05
47082;BME280;33066;49.296;14.470;2024-03-08T00:02:59;97226.77;;;11.18;30.94
47082;BME280;33066;49.296;14.470;2024-03-08T00:05:25;97229.37;;;11.14;30.95
47082;BME280;33066;49.296;14.470;2024-03-08T00:07:51;97227.53;;;11.40;31.12
47082;BME280;33066;49.296;14.470;2024-03-08T00:10:17;97229.14;;;11.40;31.06
47082;BME280;33066;49.296;14.470;2024-03-08T00:12:44;97229.27;;;11.13;30.96
47082;BME280;33066;49.296;14.470;2024-03-08T00:15:09;97226.61;;;11.32;31.03
47082;BME280;33066;49.296;14.470;2024-03-08T00:17:33;97225.84;;;11.26;31.12
47082;BME280;33066;49.296;14.470;2024-03-08T00:19:59;97226.07;;;11.23;31.14
47082;BME280;33066;49.296;14.470;2024-03-08T00:22:24;97222.88;;;11.25;31.21
47082;BME280;33066;49.296;14.470;2024-03-08T00:24:50;97221.68;;;11.54;31.25
47082;BME280;33066;49.296;14.470;2024-03-08T00:27:15;97218.25;;;11.05;31.15
47082;BME280;33066;49.296;14.470;2024-03-08T00:29:42;97218.05;;;11.54;31.19
47082;BME280;33066;49.296;14.470;2024-03-08T00:32:06;97216.26;;;11.25;31.30
47082;BME280;33066;49.296;14.470;2024-03-08T00:34:35;97210.95;;;11.40;31.29
47082;BME280;33066;49.296;14.470;2024-03-08T00:36:56;97210.55;;;11.21;31.37
47082;BME280;33066;49.296;14.470;2024-03-08T00:39:23;97211.76;;;11.22;31.31
47082;BME280;33066;49.296;14.470;2024-03-08T00:41:49;97212.74;;;11.25;31.32
47082;BME280;33066;49.296;14.470;2024-03-08T00:44:13;97210.29;;;11.44;31.30
47082;BME280;33066;49.296;14.470;2024-03-08T00:46:38;97213.41;;;11.38;31.31
47082;BME280;33066;49.296;14.470;2024-03-08T00:49:03;97212.68;;;11.44;31.32
47082;BME280;33066;49.296;14.470;2024-03-08T00:51:29;97210.00;;;11.15;31.40
47082;BME280;33066;49.296;14.470;2024-03-08T00:53:54;97208.45;;;11.12;31.31
47082;BME280;33066;49.296;14.470;2024-03-08T00:56:20;97205.88;;;10.87;31.50
47082;BME280;33066;49.296;14.470;2024-03-08T00:58:45;97205.33;;;11.23;31.48
47082;BME280;33066;49.296;14.470;2024-03-08T01:01:13;97206.11;;;11.00;31.49
47082;BME280;33066;49.296;14.470;2024-03-08T01:03:36;97204.31;;;11.30;31.49
47082;BME280;33066;49.296;14.470;2024-03-08T01:06:02;97203.64;;;11.26;31.47
47082;BME280;33066;49.296;14.470;2024-03-08T01:08:27;97203.12;;;11.27;31.53
47082;BME280;33066;49.296;14.470;2024-03-08T01:10:53;97202.33;;;11.23;31.63
47082;BME280;33066;49.296;14.470;2024-03-08T01:13:18;97202.50;;;11.02;31.63
47082;BME280;33066;49.296;14.470;2024-03-08T01:15:44;97200.88;;;11.24;31.76
47082;BME280;33066;49.296;14.470;2024-03-08T01:18:09;97201.36;;;11.03;31.82
47082;BME280;33066;49.296;14.470;2024-03-08T01:20:35;97200.26;;;11.37;31.67
47082;BME280;33066;49.296;14.470;2024-03-08T01:23:01;97198.42;;;11.38;31.55
47082;BME280;33066;49.296;14.470;2024-03-08T01:25:26;97196.57;;;11.22;31.64
47082;BME280;33066;49.296;14.470;2024-03-08T01:27:51;97192.46;;;11.36;31.57
47082;BME280;33066;49.296;14.470;2024-03-08T01:30:17;97190.51;;;10.86;31.72
47082;BME280;33066;49.296;14.470;2024-03-08T01:32:42;97186.84;;;11.10;31.57
47082;BME280;33066;49.296;14.470;2024-03-08T01:35:09;97184.06;;;11.19;31.73
47082;BME280;33066;49.296;14.470;2024-03-08T01:37:32;97182.17;;;11.08;31.93
47082;BME280;33066;49.296;14.470;2024-03-08T01:39:59;97177.70;;;11.04;32.00
47082;BME280;33066;49.296;14.470;2024-03-08T01:42:25;97174.15;;;10.83;32.00
47082;BME280;33066;49.296;14.470;2024-03-08T01:44:48;97175.96;;;11.09;31.89
47082;BME280;33066;49.296;14.470;2024-03-08T01:47:14;97173.39;;;10.84;32.00
47082;BME280;33066;49.296;14.470;2024-03-08T01:49:39;97170.65;;;11.07;32.00
47082;BME280;33066;49.296;14.470;2024-03-08T01:52:04;97167.61;;;11.17;31.98
47082;BME280;33066;49.296;14.470;2024-03-08T01:54:30;97164.83;;;10.93;31.94
47082;BME280;33066;49.296;14.470;2024-03-08T01:56:55;97162.28;;;10.97;31.81
47082;BME280;33066;49.296;14.470;2024-03-08T01:59:20;97164.61;;;10.97;31.69
47082;BME280;33066;49.296;14.470;2024-03-08T02:01:46;97163.13;;;11.04;31.70
47082;BME280;33066;49.296;14.470;2024-03-08T02:04:11;97159.86;;;11.39;31.75
47082;BME280;33066;49.296;14.470;2024-03-08T02:06:37;97159.38;;;11.19;31.68
47082;BME280;33066;49.296;14.470;2024-03-08T02:09:02;97156.94;;;10.96;31.66
47082;BME280;33066;49.296;14.470;2024-03-08T02:11:28;97153.09;;;11.17;31.75
47082;BME280;33066;49.296;14.470;2024-03-08T02:13:54;97152.04;;;11.43;31.78
47082;BME280;33066;49.296;14.470;2024-03-08T02:16:21;97149.06;;;11.16;31.71
47082;BME280;33066;49.296;14.470;2024-03-08T02:18:45;97148.38;;;11.35;31.73
47082;BME280;33066;49.296;14.470;2024-03-08T02:21:10;97146.42;;;11.08;31.67
47082;BME280;33066;49.296;14.470;2024-03-08T02:23:37;97145.53;;;11.09;31.61
47082;BME280;33066;49.296;14.470;2024-03-08T02:26:01;97143.24;;;11.30;31.70
47082;BME280;33066;49.296;14.470;2024-03-08T02:28:26;97142.43;;;11.29;31.70
47082;BME280;33066;49.296;14.470;2024-03-08T02:30:51;97141.44;;;11.24;31.87
47082;BME280;33066;49.296;14.470;2024-03-08T02:33:17;97136.85;;;10.95;31.94
47082;BME280;33066;49.296;14.470;2024-03-08T02:35:41;97138.97;;;11.12;31.93
47082;BME280;33066;49.296;14.470;2024-03-08T02:38:07;97138.92;;;10.67;32.01
47082;BME280;33066;49.296;14.470;2024-03-08T02:40:32;97136.21;;;10.89;31.91
47082;BME280;33066;49.296;14.470;2024-03-08T02:42:57;97131.15;;;11.18;32.11
47082;BME280;33066;49.296;14.470;2024-03-08T02:45:22;97132.01;;;11.14;31.92
47082;BME280;33066;49.296;14.470;2024-03-08T02:47:48;97130.42;;;11.13;31.97
47082;BME280;33066;49.296;14.470;2024-03-08T02:50:14;97128.90;;;10.90;32.04
47082;BME280;33066;49.296;14.470;2024-03-08T02:52:39;97127.85;;;10.92;32.06
47082;BME280;33066;49.296;14.470;2024-03-08T02:55:05;97124.73;;;11.14;31.98
47082;BME280;33066;49.296;14.470;2024-03-08T02:57:29;97124.14;;;11.07;32.17
47082;BME280;33066;49.296;14.470;2024-03-08T02:59:55;97122.46;;;11.13;32.15
47082;BME280;33066;49.296;14.470;2024-03-08T03:02:20;97118.60;;;11.12;32.11
47082;BME280;33066;49.296;14.470;2024-03-08T03:04:46;97114.77;;;10.88;32.19
47082;BME280;33066;49.296;14.470;2024-03-08T03:07:11;97111.43;;;11.12;32.07
47082;BME280;33066;49.296;14.470;2024-03-08T03:09:37;97110.29;;;10.89;32.14
47082;BME280;33066;49.296;14.470;2024-03-08T03:12:02;97110.00;;;10.89;32.13
47082;BME280;33066;49.296;14.470;2024-03-08T03:14:27;97106.64;;;11.15;32.10
47082;BME280;33066;49.296;14.470;2024-03-08T03:16:53;97104.81;;;10.94;32.02
47082;BME280;33066;49.296;14.470;2024-03-08T03:19:18;97103.31;;;11.19;32.14
47082;BME280;33066;49.296;14.470;2024-03-08T03:21:43;97103.04;;;10.91;32.18
47082;BME280;33066;49.296;14.470;2024-03-08T03:24:09;97103.98;;;11.07;32.26
47082;BME280;33066;49.296;14.470;2024-03-08T03:26:34;97106.76;;;10.79;32.31
47082;BME280;33066;49.296;14.470;2024-03-08T03:29:00;97106.48;;;10.92;32.41
47082;BME280;33066;49.296;14.470;2024-03-08T03:31:26;97107.13;;;10.93;32.56
47082;BME280;33066;49.296;14.470;2024-03-08T03:33:52;97103.06;;;10.83;32.66
47082;BME280;33066;49.296;14.470;2024-03-08T03:36:17;97103.55;;;10.78;32.81
47082;BME280;33066;49.296;14.470;2024-03-08T03:38:43;97101.07;;;10.80;32.81
47082;BME280;33066;49.296;14.470;2024-03-08T03:41:08;97105.40;;;10.81;32.71
47082;BME280;33066;49.296;14.470;2024-03-08T03:43:33;97101.00;;;10.84;32.61
47082;BME280;33066;49.296;14.470;2024-03-08T03:45:58;97106.43;;;10.66;32.72
47082;BME280;33066;49.296;14.470;2024-03-08T03:48:24;97105.88;;;10.71;32.88
47082;BME280;33066;49.296;14.470;2024-03-08T03:50:49;97105.29;;;10.78;32.82
47082;BME280;33066;49.296;14.470;2024-03-08T03:53:15;97109.70;;;10.58;32.98
47082;BME280;33066;49.296;14.470;2024-03-08T03:55:40;97110.97;;;10.41;33.12
47082;BME280;33066;49.296;14.470;2024-03-08T03:58:05;97110.41;;;10.43;33.26
47082;BME280;33066;49.296;14.470;2024-03-08T04:00:30;97114.80;;;10.23;33.37
47082;BME280;33066;49.296;14.470;2024-03-08T04:02:55;97112.17;;;10.38;33.35
47082;BME280;33066;49.296;14.470;2024-03-08T04:05:21;97116.91;;;10.23;33.43
47082;BME280;33066;49.296;14.470;2024-03-08T04:07:46;97118.33;;;9.92;33.56
47082;BME280;33066;49.296;14.470;2024-03-08T04:13:01;97115.52;;;10.25;33.22
47082;BME280;33066;49.296;14.470;2024-03-08T04:15:26;97113.83;;;9.96;33.49
47082;BME280;33066;49.296;14.470;2024-03-08T04:17:52;97114.82;;;10.25;33.64
47082;BME280;33066;49.296;14.470;2024-03-08T04:20:17;97117.09;;;9.90;33.77
47082;BME280;33066;49.296;14.470;2024-03-08T04:22:42;97115.04;;;9.96;33.93
47082;BME280;33066;49.296;14.470;2024-03-08T04:25:08;97109.60;;;9.73;34.17
47082;BME280;33066;49.296;14.470;2024-03-08T04:27:33;97112.97;;;9.67;34.43
47082;BME280;33066;49.296;14.470;2024-03-08T04:29:59;97112.22;;;9.68;34.57
47082;BME280;33066;49.296;14.470;2024-03-08T04:32:25;97111.06;;;9.63;34.66
47082;BME280;33066;49.296;14.470;2024-03-08T04:34:50;97111.96;;;9.30;34.82
47082;BME280;33066;49.296;14.470;2024-03-08T04:37:15;97112.90;;;9.13;35.16
47082;BME280;33066;49.296;14.470;2024-03-08T04:39:41;97113.54;;;9.48;35.37
47082;BME280;33066;49.296;14.470;2024-03-08T04:42:06;97107.23;;;9.44;35.10
47082;BME280;33066;49.296;14.470;2024-03-08T04:44:31;97106.99;;;9.66;34.81
47082;BME280;33066;49.296;14.470;2024-03-08T04:46:56;97111.00;;;9.55;34.79
47082;BME280;33066;49.296;14.470;2024-03-08T04:49:23;97107.46;;;9.59;34.67
47082;BME280;33066;49.296;14.470;2024-03-08T04:51:48;97107.56;;;9.69;34.66
47082;BME280;33066;49.296;14.470;2024-03-08T04:54:14;97110.64;;;9.72;34.76
47082;BME280;33066;49.296;14.470;2024-03-08T04:56:40;97109.25;;;9.68;34.66
47082;BME280;33066;49.296;14.470;2024-03-08T04:59:05;97103.52;;;9.60;34.46
47082;BME280;33066;49.296;14.470;2024-03-08T05:01:30;97104.02;;;9.93;34.46
47082;BME280;33066;49.296;14.470;2024-03-08T05:03:56;97106.19;;;10.02;34.40
47082;BME280;33066;49.296;14.470;2024-03-08T05:06:21;97105.21;;;9.86;34.62
47082;BME280;33066;49.296;14.470;2024-03-08T05:08:47;97106.62;;;9.33;34.86
47082;BME280;33066;49.296;14.470;2024-03-08T05:11:13;97106.92;;;9.79;35.01
47082;BME280;33066;49.296;14.470;2024-03-08T05:13:38;97104.49;;;9.81;35.35
47082;BME280;33066;49.296;14.470;2024-03-08T05:16:04;97104.93;;;9.77;34.76
47082;BME280;33066;49.296;14.470;2024-03-08T05:18:28;97102.66;;;9.81;34.65
47082;BME280;33066;49.296;14.470;2024-03-08T05:20:54;97099.50;;;9.95;34.72
47082;BME280;33066;49.296;14.470;2024-03-08T05:23:19;97095.44;;;9.70;34.29
47082;BME280;33066;49.296;14.470;2024-03-08T05:25:45;97089.76;;;9.74;34.20
47082;BME280;33066;49.296;14.470;2024-03-08T05:28:10;97087.82;;;9.95;34.47
47082;BME280;33066;49.296;14.470;2024-03-08T05:30:35;97089.67;;;9.72;34.64
47082;BME280;33066;49.296;14.470;2024-03-08T05:33:01;97093.75;;;9.70;34.27
47082;BME280;33066;49.296;14.470;2024-03-08T05:35:27;97096.10;;;9.59;34.63
47082;BME280;33066;49.296;14.470;2024-03-08T05:37:52;97096.94;;;9.57;34.74
47082;BME280;33066;49.296;14.470;2024-03-08T05:40:17;97095.63;;;9.85;34.21
47082;BME280;33066;49.296;14.470;2024-03-08T05:42:43;97093.82;;;9.67;33.97
47082;BME280;33066;49.296;14.470;2024-03-08T05:45:09;97093.39;;;9.80;33.91
47082;BME280;33066;49.296;14.470;2024-03-08T05:47:34;97092.99;;;10.14;33.67
47082;BME280;33066;49.296;14.470;2024-03-08T05:49:59;97092.72;;;9.72;34.06
47082;BME280;33066;49.296;14.470;2024-03-08T05:52:25;97096.25;;;9.83;34.03
47082;BME280;33066;49.296;14.470;2024-03-08T05:54:51;97097.51;;;9.77;33.85
47082;BME280;33066;49.296;14.470;2024-03-08T05:57:16;97098.14;;;9.77;34.15
47082;BME280;33066;49.296;14.470;2024-03-08T05:59:42;97097.82;;;9.77;33.95
47082;BME280;33066;49.296;14.470;2024-03-08T06:02:08;97097.44;;;9.47;33.91
47082;BME280;33066;49.296;14.470;2024-03-08T06:04:33;97096.33;;;9.61;33.92
47082;BME280;33066;49.296;14.470;2024-03-08T06:06:59;97098.83;;;9.73;33.64
47082;BME280;33066;49.296;14.470;2024-03-08T06:09:24;97098.62;;;9.39;33.98
47082;BME280;33066;49.296;14.470;2024-03-08T06:11:49;97098.24;;;9.34;33.87
47082;BME280;33066;49.296;14.470;2024-03-08T06:14:15;97103.67;;;9.26;33.79
47082;BME280;33066;49.296;14.470;2024-03-08T06:16:39;97102.77;;;9.18;33.98
47082;BME280;33066;49.296;14.470;2024-03-08T06:19:04;97102.59;;;9.25;33.98
47082;BME280;33066;49.296;14.470;2024-03-08T06:21:30;97099.28;;;9.44;33.70
47082;BME280;33066;49.296;14.470;2024-03-08T06:23:55;97097.73;;;9.02;33.68
47082;BME280;33066;49.296;14.470;2024-03-08T06:26:21;97098.99;;;9.58;33.46
47082;BME280;33066;49.296;14.470;2024-03-08T06:28:46;97099.21;;;9.99;33.48
47082;BME280;33066;49.296;14.470;2024-03-08T06:31:11;97100.05;;;10.00;33.63
47082;BME280;33066;49.296;14.470;2024-03-08T06:33:36;97101.58;;;9.99;33.83
47082;BME280;33066;49.296;14.470;2024-03-08T06:36:02;97102.84;;;9.81;34.02
47082;BME280;33066;49.296;14.470;2024-03-08T06:38:27;97103.17;;;9.62;33.90
47082;BME280;33066;49.296;14.470;2024-03-08T06:40:53;97105.91;;;9.86;33.46
47082;BME280;33066;49.296;14.470;2024-03-08T06:43:18;97106.19;;;9.94;33.26
47082;BME280;33066;49.296;14.470;2024-03-08T06:45:43;97106.70;;;9.68;33.41
47082;BME280;33066;49.296;14.470;2024-03-08T06:48:09;97106.42;;;9.94;33.37
47082;BME280;33066;49.296;14.470;2024-03-08T06:50:34;97106.81;;;9.79;33.44
47082;BME280;33066;49.296;14.470;2024-03-08T06:52:59;97104.47;;;10.10;33.33
47082;BME280;33066;49.296;14.470;2024-03-08T06:55:24;97104.00;;;10.18;33.66
47082;BME280;33066;49.296;14.470;2024-03-08T06:57:50;97104.03;;;10.11;33.65
47082;BME280;33066;49.296;14.470;2024-03-08T07:00:16;97102.81;;;10.11;33.04
47082;BME280;33066;49.296;14.470;2024-03-08T07:02:41;97104.83;;;10.20;32.41
47082;BME280;33066;49.296;14.470;2024-03-08T07:05:07;97100.94;;;10.36;32.51
47082;BME280;33066;49.296;14.470;2024-03-08T07:07:32;97101.91;;;10.33;32.10
47082;BME280;33066;49.296;14.470;2024-03-08T07:09:57;97103.06;;;10.56;32.30
47082;BME280;33066;49.296;14.470;2024-03-08T07:12:22;97101.73;;;10.62;32.17
47082;BME280;33066;49.296;14.470;2024-03-08T07:14:47;97104.18;;;10.60;32.17
47082;BME280;33066;49.296;14.470;2024-03-08T07:17:12;97102.85;;;10.67;31.84
47082;BME280;33066;49.296;14.470;2024-03-08T07:19:38;97097.24;;;10.39;31.91
47082;BME280;33066;49.296;14.470;2024-03-08T07:22:04;97098.34;;;10.47;32.13
47082;BME280;33066;49.296;14.470;2024-03-08T07:24:29;97096.84;;;10.07;31.95
47082;BME280;33066;49.296;14.470;2024-03-08T07:26:54;97097.91;;;10.38;32.03
47082;BME280;33066;49.296;14.470;2024-03-08T07:29:20;97097.74;;;10.32;31.97
47082;BME280;33066;49.296;14.470;2024-03-08T07:31:46;97096.99;;;9.95;32.20
47082;BME280;33066;49.296;14.470;2024-03-08T07:34:11;97096.42;;;9.70;32.34
47082;BME280;33066;49.296;14.470;2024-03-08T07:36:36;97093.83;;;10.07;32.24
47082;BME280;33066;49.296;14.470;2024-03-08T07:39:02;97093.31;;;9.82;32.54
47082;BME280;33066;49.296;14.470;2024-03-08T07:41:27;97092.58;;;9.44;32.72
47082;BME280;33066;49.296;14.470;2024-03-08T07:43:53;97090.35;;;9.54;33.16
47082;BME280;33066;49.296;14.470;2024-03-08T07:46:18;97090.86;;;9.52;32.98
47082;BME280;33066;49.296;14.470;2024-03-08T07:48:43;97088.08;;;9.55;33.06
47082;BME280;33066;49.296;14.470;2024-03-08T07:51:09;97089.66;;;9.79;32.90
47082;BME280;33066;49.296;14.470;2024-03-08T07:53:34;97089.19;;;9.99;32.77
47082;BME280;33066;49.296;14.470;2024-03-08T07:56:00;97088.88;;;10.06;32.64
47082;BME280;33066;49.296;14.470;2024-03-08T07:58:25;97083.65;;;9.69;32.63
47082;BME280;33066;49.296;14.470;2024-03-08T08:00:51;97085.38;;;9.95;32.78
47082;BME280;33066;49.296;14.470;2024-03-08T08:03:16;97087.41;;;10.15;33.00
47082;BME280;33066;49.296;14.470;2024-03-08T08:05:42;97084.90;;;9.85;33.01
47082;BME280;33066;49.296;14.470;2024-03-08T08:08:08;97085.29;;;9.28;33.61
47082;BME280;33066;49.296;14.470;2024-03-08T08:10:33;97085.96;;;9.23;33.74
47082;BME280;33066;49.296;14.470;2024-03-08T08:12:58;97085.96;;;8.97;34.10
47082;BME280;33066;49.296;14.470;2024-03-08T08:15:24;97086.99;;;9.56;34.01
47082;BME280;33066;49.296;14.470;2024-03-08T08:17:49;97085.40;;;9.34;33.92
47082;BME280;33066;49.296;14.470;2024-03-08T08:20:15;97083.32;;;9.73;34.01
47082;BME280;33066;49.296;14.470;2024-03-08T08:22:41;97080.08;;;9.82;33.51
47082;BME280;33066;49.296;14.470;2024-03-08T08:25:07;97077.85;;;10.27;33.17
47082;BME280;33066;49.296;14.470;2024-03-08T08:27:31;97076.37;;;10.36;33.04
47082;BME280;33066;49.296;14.470;2024-03-08T08:29:56;97074.26;;;10.17;32.51
47082;BME280;33066;49.296;14.470;2024-03-08T08:32:22;97076.12;;;10.03;32.55
47082;BME280;33066;49.296;14.470;2024-03-08T08:34:47;97074.19;;;9.81;33.01
47082;BME280;33066;49.296;14.470;2024-03-08T08:37:13;97074.33;;;10.52;32.61
47082;BME280;33066;49.296;14.470;2024-03-08T08:39:38;97066.38;;;10.44;32.58
47082;BME280;33066;49.296;14.470;2024-03-08T08:42:04;97065.13;;;10.77;32.08
47082;BME280;33066;49.296;14.470;2024-03-08T08:44:29;97059.31;;;11.24;32.32
47082;BME280;33066;49.296;14.470;2024-03-08T08:46:54;97058.56;;;11.09;31.66
47082;BME280;33066;49.296;14.470;2024-03-08T08:49:20;97058.42;;;11.23;31.56
47082;BME280;33066;49.296;14.470;2024-03-08T08:51:49;97054.90;;;10.97;32.04
47082;BME280;33066;49.296;14.470;2024-03-08T08:54:10;97052.27;;;11.24;31.81
47082;BME280;33066;49.296;14.470;2024-03-08T08:56:35;97049.34;;;11.64;31.41
47082;BME280;33066;49.296;14.470;2024-03-08T08:59:01;97048.70;;;11.58;31.48
47082;BME280;33066;49.296;14.470;2024-03-08T09:01:26;97043.94;;;11.41;31.10
47082;BME280;33066;49.296;14.470;2024-03-08T09:03:52;97040.89;;;11.59;30.89
47082;BME280;33066;49.296;14.470;2024-03-08T09:06:18;97040.35;;;11.87;30.75
47082;BME280;33066;49.296;14.470;2024-03-08T09:08:43;97041.13;;;11.92;30.44
47082;BME280;33066;49.296;14.470;2024-03-08T09:11:08;97036.52;;;11.65;30.30
47082;BME280;33066;49.296;14.470;2024-03-08T09:13:34;97034.81;;;11.26;30.63
47082;BME280;33066;49.296;14.470;2024-03-08T09:15:59;97034.85;;;11.36;30.94
47082;BME280;33066;49.296;14.470;2024-03-08T09:18:24;97029.52;;;11.69;30.88
47082;BME280;33066;49.296;14.470;2024-03-08T09:20:50;97028.21;;;12.10;30.49
47082;BME280;33066;49.296;14.470;2024-03-08T09:23:15;97023.49;;;12.37;30.27
47082;BME280;33066;49.296;14.470;2024-03-08T09:25:41;97022.06;;;11.75;30.47
47082;BME280;33066;49.296;14.470;2024-03-08T09:28:06;97018.03;;;11.87;30.83
47082;BME280;33066;49.296;14.470;2024-03-08T09:30:31;97015.95;;;11.94;30.66
47082;BME280;33066;49.296;14.470;2024-03-08T09:32:56;97010.21;;;11.98;30.49
47082;BME280;33066;49.296;14.470;2024-03-08T09:35:22;97008.76;;;12.03;30.51
47082;BME280;33066;49.296;14.470;2024-03-08T09:37:47;97005.96;;;12.28;30.31
47082;BME280;33066;49.296;14.470;2024-03-08T09:40:12;97002.28;;;12.27;30.47
47082;BME280;33066;49.296;14.470;2024-03-08T09:42:38;96998.33;;;12.56;30.22
47082;BME280;33066;49.296;14.470;2024-03-08T09:45:06;97000.78;;;12.91;30.07
47082;BME280;33066;49.296;14.470;2024-03-08T09:47:29;97003.42;;;12.79;30.04
47082;BME280;33066;49.296;14.470;2024-03-08T09:49:54;97001.84;;;12.80;30.00
47082;BME280;33066;49.296;14.470;2024-03-08T09:52:19;96998.82;;;12.56;29.69
47082;BME280;33066;49.296;14.470;2024-03-08T09:54:44;97004.61;;;12.27;30.13
47082;BME280;33066;49.296;14.470;2024-03-08T09:57:10;97002.26;;;11.89;30.66
47082;BME280;33066;49.296;14.470;2024-03-08T09:59:35;97002.24;;;12.01;30.80
47082;BME280;33066;49.296;14.470;2024-03-08T10:02:00;96999.28;;;12.34;30.92
47082;BME280;33066;49.296;14.470;2024-03-08T10:04:25;96990.58;;;12.38;30.83
47082;BME280;33066;49.296;14.470;2024-03-08T10:06:51;96989.07;;;12.73;30.56
47082;BME280;33066;49.296;14.470;2024-03-08T10:09:17;96990.02;;;12.46;30.87
47082;BME280;33066;49.296;14.470;2024-03-08T10:11:42;96993.81;;;12.20;30.79
47082;BME280;33066;49.296;14.470;2024-03-08T10:14:08;96979.87;;;12.39;30.35
47082;BME280;33066;49.296;14.470;2024-03-08T10:16:33;96980.18;;;12.33;30.39
47082;BME280;33066;49.296;14.470;2024-03-08T10:18:58;96983.50;;;12.17;30.75
47082;BME280;33066;49.296;14.470;2024-03-08T10:21:24;96979.69;;;11.52;31.19
47082;BME280;33066;49.296;14.470;2024-03-08T10:23:50;96980.77;;;11.86;31.66
47082;BME280;33066;49.296;14.470;2024-03-08T10:26:15;96983.86;;;12.16;31.28
47082;BME280;33066;49.296;14.470;2024-03-08T10:28:40;96979.89;;;12.62;31.14
47082;BME280;33066;49.296;14.470;2024-03-08T10:31:05;96970.97;;;13.19;30.69
47082;BME280;33066;49.296;14.470;2024-03-08T10:33:31;96968.53;;;13.04;30.64
47082;BME280;33066;49.296;14.470;2024-03-08T10:35:56;96968.29;;;12.85;30.24
47082;BME280;33066;49.296;14.470;2024-03-08T10:38:23;96974.62;;;12.24;30.51
47082;BME280;33066;49.296;14.470;2024-03-08T10:40:47;96975.62;;;12.16;30.93
47082;BME280;33066;49.296;14.470;2024-03-08T10:43:20;96969.13;;;12.21;31.21
47082;BME280;33066;49.296;14.470;2024-03-08T10:45:38;96964.50;;;12.29;31.27
47082;BME280;33066;49.296;14.470;2024-03-08T10:48:14;96966.86;;;12.34;30.92
47082;BME280;33066;49.296;14.470;2024-03-08T10:50:29;96962.90;;;11.92;31.31
47082;BME280;33066;49.296;14.470;2024-03-08T10:52:55;96969.14;;;12.07;31.18
47082;BME280;33066;49.296;14.470;2024-03-08T10:55:19;96970.36;;;12.23;31.27
47082;BME280;33066;49.296;14.470;2024-03-08T10:57:45;96967.63;;;12.35;31.18
47082;BME280;33066;49.296;14.470;2024-03-08T11:00:11;96962.98;;;12.58;31.01
47082;BME280;33066;49.296;14.470;2024-03-08T11:02:35;96960.15;;;12.49;30.96
47082;BME280;33066;49.296;14.470;2024-03-08T11:05:02;96957.03;;;12.54;30.60
47082;BME280;33066;49.296;14.470;2024-03-08T11:07:25;96957.52;;;13.03;30.51
47082;BME280;33066;49.296;14.470;2024-03-08T11:09:50;96953.33;;;13.00;30.25
47082;BME280;33066;49.296;14.470;2024-03-08T11:12:21;96951.46;;;12.88;30.55
47082;BME280;33066;49.296;14.470;2024-03-08T11:14:43;96950.46;;;12.34;30.77
47082;BME280;33066;49.296;14.470;2024-03-08T11:17:06;96954.19;;;11.82;31.05
47082;BME280;33066;49.296;14.470;2024-03-08T11:19:32;96958.05;;;11.66;31.36
47082;BME280;33066;49.296;14.470;2024-03-08T11:21:58;96952.46;;;11.81;31.60
47082;BME280;33066;49.296;14.470;2024-03-08T11:24:22;96950.58;;;11.70;31.76
47082;BME280;33066;49.296;14.470;2024-03-08T11:26:48;96950.31;;;11.35;32.06
47082;BME280;33066;49.296;14.470;2024-03-08T11:31:39;96943.84;;;11.39;32.08
47082;BME280;33066;49.296;14.470;2024-03-08T11:36:29;96930.10;;;11.50;31.69
47082;BME280;33066;49.296;14.470;2024-03-08T11:38:54;96933.97;;;11.85;31.48
47082;BME280;33066;49.296;14.470;2024-03-08T11:41:21;96939.07;;;11.78;31.50
47082;BME280;33066;49.296;14.470;2024-03-08T11:43:45;96937.87;;;11.77;31.83
47082;BME280;33066;49.296;14.470;2024-03-08T11:46:11;96937.76;;;11.68;31.86
47082;BME280;33066;49.296;14.470;2024-03-08T11:48:36;96931.63;;;11.25;32.23
47082;BME280;33066;49.296;14.470;2024-03-08T11:51:01;96927.29;;;11.94;32.15
47082;BME280;33066;49.296;14.470;2024-03-08T11:53:27;96919.95;;;12.14;31.69
47082;BME280;33066;49.296;14.470;2024-03-08T11:55:52;96919.15;;;12.15;31.44
47082;BME280;33066;49.296;14.470;2024-03-08T11:58:17;96916.21;;;12.29;31.51
47082;BME280;33066;49.296;14.470;2024-03-08T12:00:42;96914.25;;;12.52;31.54
47082;BME280;33066;49.296;14.470;2024-03-08T12:03:08;96911.81;;;12.30;31.06
47082;BME280;33066;49.296;14.470;2024-03-08T12:05:32;96907.11;;;12.79;31.20
47082;BME280;33066;49.296;14.470;2024-03-08T12:07:58;96898.77;;;12.67;31.03
47082;BME280;33066;49.296;14.470;2024-03-08T12:10:23;96904.66;;;12.22;31.35
47082;BME280;33066;49.296;14.470;2024-03-08T12:12:51;96897.14;;;12.68;31.22
47082;BME280;33066;49.296;14.470;2024-03-08T12:15:15;96895.96;;;12.53;31.45
47082;BME280;33066;49.296;14.470;2024-03-08T12:17:40;96889.09;;;12.34;31.64
47082;BME280;33066;49.296;14.470;2024-03-08T12:20:11;96886.54;;;12.75;31.11
47082;BME280;33066;49.296;14.470;2024-03-08T12:22:30;96885.77;;;13.05;30.70
47082;BME280;33066;49.296;14.470;2024-03-08T12:25:04;96888.15;;;13.29;30.47
47082;BME280;33066;49.296;14.470;2024-03-08T12:27:22;96885.04;;;13.26;30.50
47082;BME280;33066;49.296;14.470;2024-03-08T12:29:47;96885.15;;;13.61;30.03
47082;BME280;33066;49.296;14.470;2024-03-08T12:32:12;96878.41;;;13.42;29.87
47082;BME280;33066;49.296;14.470;2024-03-08T12:34:37;96881.40;;;13.09;30.10
47082;BME280;33066;49.296;14.470;2024-03-08T12:37:03;96877.94;;;13.39;29.37
47082;BME280;33066;49.296;14.470;2024-03-08T12:39:30;96871.47;;;13.67;29.53
47082;BME280;33066;49.296;14.470;2024-03-08T12:41:54;96866.13;;;13.67;29.35
47082;BME280;33066;49.296;14.470;2024-03-08T12:44:19;96860.03;;;13.94;29.36
47082;BME280;33066;49.296;14.470;2024-03-08T12:46:45;96858.29;;;14.01;29.26
47082;BME280;33066;49.296;14.470;2024-03-08T12:49:11;96863.69;;;13.58;29.08